createdAt,value
2019-01-06T00:01:50.240Z,90.30
2019-01-06T00:04:43.091Z,90.20
2019-01-06T00:07:40.671Z,90.30
2019-01-06T00:10:30.297Z,90.30
2019-01-06T00:13:12.515Z,90.40
2019-01-06T00:16:03.122Z,90.40
2019-01-06T00:19:08.852Z,90.40
2019-01-06T00:22:00.534Z,90.40
2019-01-06T00:24:50.006Z,90.40
2019-01-06T00:27:52.176Z,90.30
2019-01-06T00:30:43.042Z,90.40
2019-01-06T00:33:47.797Z,90.40
2019-01-06T00:36:37.263Z,90.40
2019-01-06T00:39:42.084Z,90.30
2019-01-06T00:42:53.311Z,90.30
2019-01-06T00:45:55.716Z,90.30
2019-01-06T00:48:55.856Z,90.30
2019-01-06T00:51:58.417Z,90.30
2019-01-06T00:54:48.560Z,90.40
2019-01-06T00:57:46.886Z,90.30
2019-01-06T01:00:39.653Z,90.30
2019-01-06T01:03:36.722Z,90.30
2019-01-06T01:06:24.195Z,90.30
2019-01-06T01:09:15.229Z,90.20
2019-01-06T01:12:11.074Z,90.30
2019-01-06T01:14:57.247Z,90.30
2019-01-06T01:17:50.061Z,90.40
2019-01-06T01:20:29.968Z,90.40
2019-01-06T01:23:16.337Z,90.40
2019-01-06T01:26:16.368Z,90.40
2019-01-06T01:29:09.156Z,90.40
2019-01-06T01:32:04.508Z,90.50
2019-01-06T01:34:52.121Z,90.50
2019-01-06T01:37:33.080Z,90.40
2019-01-06T01:40:18.376Z,90.40
2019-01-06T01:43:07.394Z,90.40
2019-01-06T01:46:09.506Z,90.50
2019-01-06T01:49:17.406Z,90.40
2019-01-06T01:52:16.887Z,90.50
2019-01-06T01:55:09.944Z,90.40
2019-01-06T01:58:02.634Z,90.40
2019-01-06T02:00:57.909Z,90.50
2019-01-06T02:03:50.768Z,90.50
2019-01-06T02:06:38.994Z,90.50
2019-01-06T02:09:27.429Z,90.50
2019-01-06T02:12:19.868Z,90.50
2019-01-06T02:15:13.012Z,90.60
2019-01-06T02:18:15.068Z,90.60
2019-01-06T02:21:04.881Z,90.60
2019-01-06T02:23:46.472Z,90.60
2019-01-06T02:26:39.353Z,90.60
2019-01-06T02:29:41.483Z,90.60
2019-01-06T02:32:31.006Z,90.70
2019-01-06T02:35:23.819Z,90.70
2019-01-06T02:38:27.137Z,90.70
2019-01-06T02:41:18.627Z,90.70
2019-01-06T02:44:07.733Z,90.60
2019-01-06T02:46:47.664Z,90.60
2019-01-06T02:49:39.823Z,90.60
2019-01-06T02:52:38.973Z,90.60
2019-01-06T02:55:28.504Z,90.60
2019-01-06T02:58:27.752Z,90.60
2019-01-06T03:01:20.057Z,90.60
2019-01-06T03:03:57.161Z,90.60
2019-01-06T03:06:49.916Z,90.70
2019-01-06T03:09:39.237Z,90.60
2019-01-06T03:12:34.889Z,90.60
2019-01-06T03:15:29.377Z,90.70
2019-01-06T03:18:25.318Z,90.60
2019-01-06T03:21:13.584Z,90.60
2019-01-06T03:24:12.830Z,90.70
2019-01-06T03:27:00.956Z,90.70
2019-01-06T03:30:08.886Z,90.60
2019-01-06T03:32:58.461Z,90.60
2019-01-06T03:35:44.857Z,90.50
2019-01-06T03:38:25.872Z,90.60
2019-01-06T03:41:18.587Z,90.50
2019-01-06T03:44:20.452Z,90.60
2019-01-06T03:47:09.340Z,90.70
2019-01-06T03:49:57.708Z,90.60
2019-01-06T03:52:50.256Z,90.60
2019-01-06T03:55:42.240Z,90.60
2019-01-06T03:58:23.693Z,90.60
2019-01-06T04:01:23.889Z,90.60
2019-01-06T04:04:13.430Z,90.70
2019-01-06T04:07:16.363Z,90.70
2019-01-06T04:10:03.368Z,90.80
2019-01-06T04:12:58.696Z,90.90
2019-01-06T04:16:00.592Z,91.00
2019-01-06T04:22:09.923Z,91.00
2019-01-06T04:25:05.435Z,91.20
2019-01-06T04:28:07.125Z,91.20
2019-01-06T04:31:03.152Z,91.40
2019-01-06T04:33:55.964Z,91.40
2019-01-06T04:36:58.346Z,91.70
2019-01-06T04:39:46.768Z,91.50
2019-01-06T04:42:54.910Z,91.60
2019-01-06T04:45:43.315Z,91.60
2019-01-06T04:48:32.065Z,91.70
2019-01-06T04:51:24.644Z,91.70
2019-01-06T04:54:13.453Z,91.70
2019-01-06T04:57:07.322Z,91.70
2019-01-06T05:00:08.771Z,91.80
2019-01-06T05:02:56.809Z,91.90
2019-01-06T05:05:52.441Z,91.90
2019-01-06T05:08:42.155Z,91.90
2019-01-06T05:11:29.078Z,92.00
2019-01-06T05:14:25.467Z,92.00
2019-01-06T05:17:13.973Z,92.00
2019-01-06T05:20:02.562Z,91.90
2019-01-06T05:22:52.051Z,91.90
2019-01-06T05:25:40.662Z,91.90
2019-01-06T05:28:29.263Z,91.90
2019-01-06T05:31:35.330Z,91.90
2019-01-06T05:34:30.912Z,91.90
2019-01-06T05:37:19.353Z,91.90
2019-01-06T05:40:24.057Z,91.90
2019-01-06T05:43:12.832Z,91.90
2019-01-06T05:46:02.809Z,91.90
2019-01-06T05:48:53.557Z,91.90
2019-01-06T05:51:43.255Z,91.90
2019-01-06T05:54:32.767Z,91.90
2019-01-06T05:57:21.317Z,92.00
2019-01-06T06:00:13.148Z,91.90
2019-01-06T06:03:05.497Z,92.00
2019-01-06T06:05:58.515Z,92.00
2019-01-06T06:08:48.187Z,91.90
2019-01-06T06:11:36.005Z,92.00
2019-01-06T06:14:43.900Z,92.00
2019-01-06T06:17:49.005Z,92.10
2019-01-06T06:20:46.155Z,92.00
2019-01-06T06:23:45.714Z,92.00
2019-01-06T06:26:39.127Z,92.10
2019-01-06T06:29:33.728Z,92.10
2019-01-06T06:32:22.991Z,92.10
2019-01-06T06:35:14.625Z,92.00
2019-01-06T06:38:17.561Z,92.00
2019-01-06T06:41:07.956Z,92.10
2019-01-06T06:43:54.717Z,92.10
2019-01-06T06:46:44.012Z,92.10
2019-01-06T06:49:33.770Z,92.10
2019-01-06T06:52:58.250Z,92.10
2019-01-06T06:56:01.680Z,92.10
2019-01-06T06:59:01.050Z,92.20
2019-01-06T07:02:37.701Z,92.20
2019-01-06T07:05:29.538Z,92.20
2019-01-06T07:08:24.703Z,92.20
2019-01-06T07:11:31.353Z,92.10
2019-01-06T07:14:24.428Z,92.10
2019-01-06T07:17:53.358Z,92.20
2019-01-06T07:20:45.921Z,92.20
2019-01-06T07:23:35.503Z,92.20
2019-01-06T07:26:33.175Z,92.20
2019-01-06T07:29:32.452Z,92.20
2019-01-06T07:32:32.109Z,92.30
2019-01-06T07:38:41.279Z,92.20
2019-01-06T07:41:26.976Z,92.20
2019-01-06T07:44:29.097Z,92.20
2019-01-06T07:47:22.022Z,92.10
2019-01-06T07:50:10.612Z,92.10
2019-01-06T07:53:15.629Z,92.10
2019-01-06T07:56:14.448Z,92.00
2019-01-06T07:59:03.376Z,92.10
2019-01-06T08:01:59.060Z,92.00
2019-01-06T08:04:58.008Z,92.00
2019-01-06T08:07:46.097Z,92.00
2019-01-06T08:10:34.910Z,92.00
2019-01-06T08:13:23.268Z,91.90
2019-01-06T08:16:09.910Z,92.00
2019-01-06T08:19:00.362Z,92.30
2019-01-06T08:21:48.773Z,91.90
2019-01-06T08:24:50.063Z,91.90
2019-01-06T08:27:50.500Z,92.30
2019-01-06T08:30:48.700Z,91.90
2019-01-06T08:33:41.584Z,92.00
2019-01-06T08:36:43.473Z,92.00
2019-01-06T08:39:45.037Z,92.10
2019-01-06T08:42:46.482Z,92.00
2019-01-06T08:45:39.558Z,92.10
2019-01-06T08:48:29.095Z,92.10
2019-01-06T08:51:17.149Z,92.10
2019-01-06T08:54:05.534Z,91.80
2019-01-06T08:56:53.653Z,92.10
2019-01-06T08:59:43.174Z,92.00
2019-01-06T09:02:31.341Z,92.10
2019-01-06T09:05:19.112Z,92.10
2019-01-06T09:08:14.248Z,92.10
2019-01-06T09:11:22.908Z,92.10
2019-01-06T09:14:20.224Z,92.00
2019-01-06T09:17:24.918Z,92.20
2019-01-06T09:20:13.033Z,92.10
2019-01-06T09:23:04.780Z,92.10
2019-01-06T09:26:09.594Z,92.10
2019-01-06T09:28:57.713Z,92.00
2019-01-06T09:31:46.544Z,92.00
2019-01-06T09:34:45.217Z,91.80
2019-01-06T09:37:40.773Z,91.80
2019-01-06T09:40:34.797Z,91.70
2019-01-06T09:43:33.945Z,91.50
2019-01-06T09:46:26.364Z,91.60
2019-01-06T09:49:21.886Z,91.60
2019-01-06T09:52:20.544Z,91.70
2019-01-06T09:55:10.100Z,91.60
2019-01-06T09:57:58.394Z,91.60
2019-01-06T10:00:47.880Z,91.50
2019-01-06T10:03:46.481Z,91.40
2019-01-06T10:06:34.971Z,91.40
2019-01-06T10:09:25.648Z,91.30
2019-01-06T10:12:15.090Z,91.40
2019-01-06T10:15:09.026Z,91.30
2019-01-06T10:17:57.158Z,91.30
2019-01-06T10:20:45.319Z,91.30
2019-01-06T10:23:40.893Z,91.10
2019-01-06T10:26:36.889Z,91.00
2019-01-06T10:29:25.042Z,90.80
2019-01-06T10:32:29.900Z,91.00
2019-01-06T10:35:18.622Z,91.10
2019-01-06T10:38:23.272Z,91.10
2019-01-06T10:41:22.271Z,91.00
2019-01-06T10:44:23.940Z,91.00
2019-01-06T10:47:12.381Z,91.00
2019-01-06T10:50:01.030Z,91.20
2019-01-06T10:52:50.537Z,91.20
2019-01-06T10:55:49.125Z,91.20
2019-01-06T10:58:56.777Z,91.10
2019-01-06T11:01:45.060Z,91.00
2019-01-06T11:04:33.310Z,91.00
2019-01-06T11:07:23.905Z,91.00
2019-01-06T11:10:17.101Z,91.00
2019-01-06T11:13:23.508Z,90.90
2019-01-06T11:16:14.057Z,91.00
2019-01-06T11:19:17.976Z,91.10
2019-01-06T11:22:02.931Z,91.00
2019-01-06T11:24:51.263Z,90.80
2019-01-06T11:27:46.734Z,90.70
2019-01-06T11:30:36.632Z,90.90
2019-01-06T11:33:38.458Z,90.60
2019-01-06T11:36:24.124Z,90.60
2019-01-06T11:39:16.673Z,91.10
2019-01-06T11:42:15.482Z,90.70
2019-01-06T11:45:17.365Z,90.80
2019-01-06T11:48:19.534Z,90.80
2019-01-06T11:51:25.109Z,90.90
2019-01-06T11:54:19.761Z,91.00
2019-01-06T11:57:21.315Z,91.10
2019-01-06T12:00:02.622Z,90.80
2019-01-06T12:02:45.050Z,90.70
2019-01-06T12:05:33.393Z,90.80
2019-01-06T12:08:21.545Z,90.70
2019-01-06T12:11:16.293Z,90.70
2019-01-06T12:13:59.228Z,90.70
2019-01-06T12:16:42.072Z,90.80
2019-01-06T12:19:33.811Z,90.80
2019-01-06T12:22:20.689Z,90.70
2019-01-06T12:25:10.169Z,90.70
2019-01-06T12:27:58.450Z,90.70
2019-01-06T12:30:46.537Z,90.70
2019-01-06T12:33:54.409Z,90.70
2019-01-06T12:36:53.719Z,90.50
2019-01-06T12:39:44.473Z,90.50
2019-01-06T12:42:36.744Z,90.50
2019-01-06T12:45:25.660Z,90.60
2019-01-06T12:48:15.157Z,90.70
2019-01-06T12:51:07.503Z,90.80
2019-01-06T12:53:55.825Z,90.90
2019-01-06T12:56:45.381Z,90.90
2019-01-06T12:59:35.277Z,90.80
2019-01-06T13:02:24.853Z,90.70
2019-01-06T13:05:08.930Z,90.50
2019-01-06T13:08:13.533Z,90.60
2019-01-06T13:11:05.366Z,90.30
2019-01-06T13:13:54.852Z,90.50
2019-01-06T13:16:43.212Z,90.60
2019-01-06T13:19:33.409Z,90.40
2019-01-06T13:22:31.330Z,90.10
2019-01-06T13:25:19.612Z,90.40
2019-01-06T13:28:15.469Z,90.30
2019-01-06T13:31:01.703Z,90.20
2019-01-06T13:33:50.825Z,90.30
2019-01-06T13:36:39.350Z,90.30
2019-01-06T13:39:45.200Z,90.30
2019-01-06T13:42:33.447Z,90.30
2019-01-06T13:45:34.792Z,90.20
2019-01-06T13:48:17.884Z,90.40
2019-01-06T13:51:18.304Z,90.30
2019-01-06T13:54:06.377Z,90.40
2019-01-06T13:57:05.359Z,90.50
2019-01-06T14:00:13.721Z,90.40
2019-01-06T14:03:04.911Z,90.40
2019-01-06T14:05:53.549Z,90.50
2019-01-06T14:08:43.588Z,90.40
2019-01-06T14:11:27.908Z,90.50
2019-01-06T14:14:20.408Z,90.70
2019-01-06T14:17:09.041Z,90.60
2019-01-06T14:19:57.188Z,90.60
2019-01-06T14:22:38.132Z,90.70
2019-01-06T14:25:21.283Z,90.60
2019-01-06T14:28:09.897Z,90.40
2019-01-06T14:31:02.530Z,90.50
2019-01-06T14:33:56.622Z,90.50
2019-01-06T14:36:44.118Z,90.60
2019-01-06T14:39:39.762Z,90.70
2019-01-06T14:42:42.170Z,90.70
2019-01-06T14:45:26.536Z,90.70
2019-01-06T14:48:14.743Z,90.70
2019-01-06T14:51:22.325Z,90.80
2019-01-06T14:54:21.060Z,90.70
2019-01-06T14:57:16.397Z,90.90
2019-01-06T15:00:10.024Z,90.90
2019-01-06T15:02:58.705Z,91.10
2019-01-06T15:05:54.448Z,91.10
2019-01-06T15:08:42.813Z,91.00
2019-01-06T15:11:25.832Z,91.10
2019-01-06T15:14:30.868Z,91.10
2019-01-06T15:17:29.332Z,91.00
2019-01-06T15:20:34.176Z,91.10
2019-01-06T15:23:36.255Z,91.20
2019-01-06T15:26:24.741Z,91.10
2019-01-06T15:29:13.168Z,91.00
2019-01-06T15:32:01.918Z,91.00
2019-01-06T15:35:09.835Z,91.10
2019-01-06T15:38:02.226Z,91.10
2019-01-06T15:41:07.066Z,91.10
2019-01-06T15:43:55.289Z,91.10
2019-01-06T15:46:44.838Z,91.10
2019-01-06T15:49:46.670Z,91.10
2019-01-06T15:52:35.070Z,91.10
2019-01-06T15:55:27.772Z,91.20
2019-01-06T15:58:16.085Z,91.20
2019-01-06T16:01:04.458Z,91.20
2019-01-06T16:03:53.985Z,91.20
2019-01-06T16:07:02.067Z,91.20
2019-01-06T16:09:50.160Z,91.30
2019-01-06T16:12:38.008Z,91.30
2019-01-06T16:15:38.980Z,91.30
2019-01-06T16:18:34.367Z,91.40
2019-01-06T16:21:30.489Z,91.40
2019-01-06T16:24:17.084Z,91.30
2019-01-06T16:27:09.800Z,91.20
2019-01-06T16:29:56.298Z,91.30
2019-01-06T16:32:46.579Z,91.40
2019-01-06T16:35:48.268Z,91.40
2019-01-06T16:38:36.411Z,91.40
2019-01-06T16:41:41.196Z,91.30
2019-01-06T16:44:44.068Z,91.40
2019-01-06T16:47:32.285Z,91.40
2019-01-06T16:50:30.753Z,91.50
2019-01-06T16:53:20.580Z,91.90
2019-01-06T16:56:10.180Z,91.50
2019-01-06T16:59:02.783Z,91.60
2019-01-06T17:01:58.364Z,91.70
2019-01-06T17:05:06.360Z,91.60
2019-01-06T17:08:11.253Z,91.50
2019-01-06T17:11:15.792Z,91.40
2019-01-06T17:14:04.028Z,91.40
2019-01-06T17:16:53.515Z,91.40
2019-01-06T17:19:49.058Z,91.40
2019-01-06T17:22:37.255Z,91.50
2019-01-06T17:25:21.564Z,91.60
2019-01-06T17:28:16.874Z,91.50
2019-01-06T17:31:16.100Z,91.60
2019-01-06T17:33:57.161Z,91.60
2019-01-06T17:36:46.649Z,91.90
2019-01-06T17:39:47.958Z,91.50
2019-01-06T17:42:48.739Z,91.50
2019-01-06T17:45:39.457Z,91.50
2019-01-06T17:48:31.239Z,91.50
2019-01-06T17:51:19.362Z,91.50
2019-01-06T17:54:04.001Z,91.50
2019-01-06T17:56:52.123Z,91.50
2019-01-06T17:59:37.221Z,91.50
2019-01-06T18:02:21.163Z,91.50
2019-01-06T18:05:09.401Z,91.50
2019-01-06T18:08:12.845Z,91.60
2019-01-06T18:11:08.228Z,91.60
2019-01-06T18:13:56.498Z,91.60
2019-01-06T18:16:55.162Z,91.50
2019-01-06T18:19:50.844Z,91.50
2019-01-06T18:22:40.777Z,91.60
2019-01-06T18:25:25.005Z,91.60
2019-01-06T18:28:26.802Z,91.60
2019-01-06T18:31:12.387Z,91.60
2019-01-06T18:34:01.994Z,91.70
2019-01-06T18:37:03.459Z,91.70
2019-01-06T18:39:52.973Z,91.60
2019-01-06T18:42:38.940Z,91.60
2019-01-06T18:45:34.378Z,91.60
2019-01-06T18:48:24.207Z,91.70
2019-01-06T18:51:31.860Z,91.70
2019-01-06T18:54:33.752Z,91.70
2019-01-06T18:57:28.099Z,91.70
2019-01-06T19:00:16.235Z,91.70
2019-01-06T19:03:05.729Z,91.60
2019-01-06T19:06:04.924Z,91.70
2019-01-06T19:09:12.699Z,91.70
2019-01-06T19:12:05.020Z,91.70
2019-01-06T19:14:53.225Z,91.70
2019-01-06T19:17:53.182Z,91.70
2019-01-06T19:20:56.561Z,92.00
2019-01-06T19:23:44.571Z,91.70
2019-01-06T19:26:33.061Z,91.50
2019-01-06T19:29:28.814Z,91.20
2019-01-06T19:32:17.001Z,91.00
2019-01-06T19:35:01.373Z,90.70
2019-01-06T19:37:49.635Z,90.80
2019-01-06T19:40:45.250Z,90.70
2019-01-06T19:43:33.679Z,90.50
2019-01-06T19:46:21.980Z,90.40
2019-01-06T19:49:20.520Z,90.30
2019-01-06T19:52:16.119Z,90.40
2019-01-06T19:55:17.996Z,90.20
2019-01-06T19:58:06.549Z,90.00
2019-01-06T20:00:56.574Z,89.60
2019-01-06T20:03:45.082Z,89.10
2019-01-06T20:06:36.840Z,90.00
2019-01-06T20:09:26.726Z,90.00
2019-01-06T20:12:25.339Z,89.90
2019-01-06T20:15:21.019Z,89.60
2019-01-06T20:18:10.512Z,89.70
2019-01-06T20:20:58.794Z,90.00
2019-01-06T20:23:44.565Z,90.60
2019-01-06T20:26:49.233Z,90.50
2019-01-06T20:29:41.437Z,90.90
2019-01-06T20:32:39.306Z,90.60
2019-01-06T20:35:29.244Z,90.70
2019-01-06T20:38:17.854Z,90.80
2019-01-06T20:41:19.719Z,90.80
2019-01-06T20:44:18.382Z,90.90
2019-01-06T20:47:06.684Z,91.00
2019-01-06T20:49:54.879Z,91.10
2019-01-06T20:52:56.325Z,91.10
2019-01-06T20:55:45.929Z,91.00
2019-01-06T20:58:34.182Z,91.10
2019-01-06T21:01:22.460Z,91.00
2019-01-06T21:04:13.900Z,91.20
2019-01-06T21:07:03.439Z,91.20
2019-01-06T21:09:57.828Z,91.20
2019-01-06T21:12:47.345Z,91.20
2019-01-06T21:15:36.831Z,91.20
2019-01-06T21:18:25.272Z,91.10
2019-01-06T21:21:27.270Z,91.20
2019-01-06T21:24:32.097Z,91.30
2019-01-06T21:27:46.465Z,91.30
2019-01-06T21:30:36.291Z,91.40
2019-01-06T21:33:31.894Z,91.40
2019-01-06T21:36:33.750Z,91.40
2019-01-06T21:39:33.889Z,91.50
2019-01-06T21:42:23.913Z,91.50
2019-01-06T21:45:13.474Z,91.50
2019-01-06T21:48:03.326Z,91.40
2019-01-06T21:50:58.359Z,91.50
2019-01-06T21:53:53.817Z,91.50
2019-01-06T21:56:43.737Z,91.60
2019-01-06T21:59:39.658Z,91.60
2019-01-06T22:02:31.691Z,91.60
2019-01-06T22:05:22.814Z,91.70
2019-01-06T22:08:15.165Z,91.70
2019-01-06T22:11:23.444Z,91.60
2019-01-06T22:14:28.379Z,91.70
2019-01-06T22:17:16.629Z,91.70
2019-01-06T22:20:19.129Z,91.80
2019-01-06T22:23:08.940Z,91.70
2019-01-06T22:25:53.796Z,91.70
2019-01-06T22:28:52.813Z,91.70
2019-01-06T22:31:41.205Z,91.70
2019-01-06T22:34:33.155Z,91.70
2019-01-06T22:37:21.817Z,91.50
2019-01-06T22:40:05.316Z,91.50
2019-01-06T22:43:07.417Z,91.50
2019-01-06T22:46:06.258Z,91.60
2019-01-06T22:48:55.774Z,91.50
2019-01-06T22:51:43.993Z,91.60
2019-01-06T22:54:33.589Z,91.70
2019-01-06T22:57:32.876Z,91.60
2019-01-06T23:00:22.719Z,91.40
2019-01-06T23:03:12.842Z,91.30
2019-01-06T23:06:01.418Z,91.40
2019-01-06T23:08:51.234Z,91.40
2019-01-06T23:11:39.651Z,91.50
2019-01-06T23:14:53.478Z,91.30
2019-01-06T23:17:52.460Z,91.30
2019-01-06T23:20:40.960Z,91.30
2019-01-06T23:23:30.076Z,91.40
2019-01-06T23:26:19.017Z,91.30
2019-01-06T23:29:08.618Z,91.30
2019-01-06T23:31:56.977Z,91.40
2019-01-06T23:35:01.963Z,91.40
2019-01-06T23:38:00.613Z,91.50
2019-01-06T23:40:50.088Z,91.40
2019-01-06T23:43:38.467Z,91.40
2019-01-06T23:46:18.965Z,91.40
2019-01-06T23:49:26.542Z,91.40
2019-01-06T23:52:16.032Z,91.40
2019-01-06T23:55:04.196Z,91.50
2019-01-06T23:58:02.892Z,91.50
